• Join FlightAware (Why Join?)
  • Login
  • US Flag 
04:28AM EDT


 

Airport Tracker/Info


-or-


 

Live Flight TrackerFlight Track Log ✈ N209CM ✈ 22-Apr-2013 ✈ KINT - KCLT

Flight Track Log - Related Links

Times and Time Zones

All times are in EDT time to prevent confusion due to time zone crossing. See the N209CM flight status page for this flight to view local times or setup timezone preferences in your user account.

Time Position Orientation Groundspeed Altitude Reporting Facility
EDT Latitude Longitude Course Direction KTS MPH feet Rate Location/Type
01:09PM 36.0647 -80.3486 213° Southwest 255 293 7,000  Level FAA TRACON SMA TRACON (SMA)
01:09PM 36.0453 -80.3581 201° Southwest 244 281 7,000  Level FAA TRACON SMA TRACON (SMA)
01:09PM 36.0253 -80.3669 200° South 246 283 7,000 420 Level FAA TRACON SMA TRACON (SMA)
01:10PM 36.0011 -80.3789 202° Southwest 245 282 7,300 1,020 Climbing FAA TRACON SMA TRACON (SMA)
01:10PM 35.9819 -80.3875 200° South 239 275 7,700 1,560 Climbing FAA TRACON SMA TRACON (SMA)
01:11PM 35.9422 -80.4050 200° South 220 253 8,900 1,260 Climbing FAA TRACON SMA TRACON (SMA)
01:11PM 35.9244 -80.4117 197° South 219 252 9,000 300 Climbing FAA TRACON SMA TRACON (SMA)
01:11PM 35.9064 -80.4206 202° Southwest 224 258 9,100 120 Climbing FAA TRACON SMA TRACON (SMA)
01:12PM 35.8515 -80.4357 213° Southwest  Level FlightAware Approximate
01:12PM 35.8825 -80.4325 202° Southwest 234 269 9,100  Level FAA TRACON SMA TRACON (SMA)
01:12PM 35.8619 -80.4403 197° South 243 280 9,100  Level FAA TRACON SMA TRACON (SMA)
01:12PM 35.8425 -80.4494 201° Southwest 241 277 9,100  Level FAA TRACON SMA TRACON (SMA)
01:13PM 35.8047 -80.4730 213° Southwest  Level FlightAware Approximate
01:13PM 35.8203 -80.4586 198° South 247 284 9,100  Level Atlanta Center
01:14PM 35.7580 -80.5103 213° Southwest  Level FlightAware Approximate
01:14PM 35.7586 -80.4894 202° Southwest 245 282 9,100  Level Atlanta Center
01:15PM 35.7014 -80.5303 210° Southwest 241 277 9,100  Level Atlanta Center
01:16PM 35.6464 -80.5761 214° Southwest 233 268 9,100  Level Atlanta Center
01:17PM 35.5933 -80.6192 213° Southwest 232 267 9,100  Level Atlanta Center
01:18PM 35.5364 -80.6675 215° Southwest 233 268 9,100  Level Atlanta Center
01:19PM 35.4811 -80.7106 212° Southwest 234 269 9,100  Level Atlanta Center
01:20PM 35.4283 -80.7586 217° Southwest 234 269 9,100  Level Atlanta Center
01:21PM 35.3753 -80.8039 215° Southwest 234 269 9,100  Level Atlanta Center
01:21PM 35.3592 -80.8156 211° Southwest 233 268 9,100  Level FAA TRACON SMA TRACON (SMA)
01:21PM 35.3425 -80.8292 214° Southwest 235 270 9,100  Level FAA TRACON SMA TRACON (SMA)
01:22PM 35.3222 -80.8306 183° South 243 280 9,100  Level FAA TRACON SMA TRACON (SMA)
01:22PM 35.2967 -80.8272 174° South 242 278 9,100  Level FAA TRACON SMA TRACON (SMA)
01:22PM 35.2764 -80.8247 174° South 236 272 9,100  Level FAA TRACON SMA TRACON (SMA)
01:23PM 35.2561 -80.8231 176° South 235 270 9,100  Level FAA TRACON SMA TRACON (SMA)
01:23PM 35.2303 -80.8214 177° South 236 272 9,100  Level FAA TRACON SMA TRACON (SMA)
01:23PM 35.2100 -80.8203 177° South 236 272 9,100 -480 Level FAA TRACON SMA TRACON (SMA)
01:24PM 35.1892 -80.8189 177° South 238 274 8,800 -1,500 Descending FAA TRACON SMA TRACON (SMA)
01:24PM 35.1631 -80.8175 178° South 239 275 8,100 -2,100 Descending FAA TRACON SMA TRACON (SMA)
01:24PM 35.1428 -80.8158 176° South 236 272 7,400 -2,280 Descending FAA TRACON SMA TRACON (SMA)
01:25PM 35.1231 -80.8142 176° South 228 262 6,600 -2,640 Descending FAA TRACON SMA TRACON (SMA)
01:25PM 35.1036 -80.8131 177° South 228 262 5,700 -2,940 Descending FAA TRACON SMA TRACON (SMA)
01:25PM 35.0789 -80.8128 179° South 229 264 4,700 -2,220 Descending FAA TRACON SMA TRACON (SMA)
01:26PM 35.0597 -80.8131 181° South 226 260 4,200 -900 Descending FAA TRACON SMA TRACON (SMA)
01:26PM 35.0422 -80.8203 199° South 235 270 4,100 -180 Descending FAA TRACON SMA TRACON (SMA)
01:26PM 35.0333 -80.8450 246° West 219 252 4,100  Level FAA TRACON SMA TRACON (SMA)
01:27PM 35.0406 -80.8656 293° West 222 255 4,100  Level FAA TRACON SMA TRACON (SMA)
01:27PM 35.0522 -80.8822 311° West 211 243 4,100  Level FAA TRACON SMA TRACON (SMA)
01:27PM 35.0661 -80.9014 312° West 197 227 4,100 -480 Level FAA TRACON SMA TRACON (SMA)
01:28PM 35.0781 -80.9144 318° Northwest 193 222 3,800 -900 Descending FAA TRACON SMA TRACON (SMA)
01:28PM 35.0931 -80.9236 333° Northwest 199 229 3,500 -1,080 Descending FAA TRACON SMA TRACON (SMA)
01:28PM 35.1122 -80.9278 350° North 180 207 3,100 -1,080 Descending FAA TRACON SMA TRACON (SMA)
01:29PM 35.1272 -80.9289 357° North 167 192 2,800 -1,080 Descending FAA TRACON SMA TRACON (SMA)
01:29PM 35.1397 -80.9281 North 165 190 2,400 -1,380 Descending FAA TRACON SMA TRACON (SMA)
01:29PM 35.1561 -80.9306 353° North 131 151 1,900 -1,080 Descending FAA TRACON SMA TRACON (SMA)
01:30PM 35.1661 -80.9311 357° North 114 131 1,700 -780 Descending FAA TRACON SMA TRACON (SMA)
01:30PM 35.1756 -80.9322 355° North 110 127 1,400 -780 Descending FAA TRACON SMA TRACON (SMA)
01:30PM 35.1869 -80.9331 357° North 106 122 1,200 -600 Descending FAA TRACON SMA TRACON (SMA)
01:31PM 35.1956 -80.9336 357° North 100 115 1,000 -480 Descending FAA TRACON SMA TRACON (SMA)
01:31PM 35.1975 -80.9339 353° North 99 114 900 -120 Descending FAA TRACON SMA TRACON (SMA)
01:32PM 35.1975 -80.9339 90° East 99 114 900  Level FAA TRACON SMA TRACON (SMA)